sensor_id;sensor_type;location;lat;lon;timestamp;pressure;altitude;pressure_sealevel;temperature;humidity
74310;BME280;62722;51.142;17.052;2023-02-02T00:00:53;99625.75;;;2.88;95.45
74310;BME280;62722;51.142;17.052;2023-02-02T00:03:31;99626.69;;;2.87;95.33
74310;BME280;62722;51.142;17.052;2023-02-02T00:06:00;99625.00;;;2.86;95.83
74310;BME280;62722;51.142;17.052;2023-02-02T00:08:28;99633.72;;;2.85;95.62
74310;BME280;62722;51.142;17.052;2023-02-02T00:10:56;99632.75;;;2.88;95.27
74310;BME280;62722;51.142;17.052;2023-02-02T00:13:23;99628.38;;;2.88;95.07
74310;BME280;62722;51.142;17.052;2023-02-02T00:15:52;99621.47;;;2.87;94.97
74310;BME280;62722;51.142;17.052;2023-02-02T00:18:19;99624.09;;;2.87;94.97
74310;BME280;62722;51.142;17.052;2023-02-02T00:20:46;99606.81;;;2.85;94.88
74310;BME280;62722;51.142;17.052;2023-02-02T00:23:15;99612.88;;;2.85;94.97
74310;BME280;62722;51.142;17.052;2023-02-02T00:25:43;99625.00;;;2.86;94.52
74310;BME280;62722;51.142;17.052;2023-02-02T00:28:10;99618.88;;;2.87;94.31
74310;BME280;62722;51.142;17.052;2023-02-02T00:30:37;99627.47;;;2.89;94.65
74310;BME280;62722;51.142;17.052;2023-02-02T00:33:05;99625.69;;;2.90;95.16
74310;BME280;62722;51.142;17.052;2023-02-02T00:35:32;99641.34;;;2.90;94.23
74310;BME280;62722;51.142;17.052;2023-02-02T00:37:59;99621.34;;;2.90;94.17
74310;BME280;62722;51.142;17.052;2023-02-02T00:40:29;99636.84;;;2.93;93.89
74310;BME280;62722;51.142;17.052;2023-02-02T00:42:56;99641.41;;;2.88;93.58
74310;BME280;62722;51.142;17.052;2023-02-02T00:45:23;99640.25;;;2.96;94.23
74310;BME280;62722;51.142;17.052;2023-02-02T00:47:50;99640.25;;;2.96;93.56
74310;BME280;62722;51.142;17.052;2023-02-02T00:50:19;99627.97;;;2.98;93.57
74310;BME280;62722;51.142;17.052;2023-02-02T00:52:47;99640.84;;;3.01;93.16
74310;BME280;62722;51.142;17.052;2023-02-02T00:55:15;99648.63;;;3.02;92.98
74310;BME280;62722;51.142;17.052;2023-02-02T00:57:44;99646.88;;;3.03;93.16
74310;BME280;62722;51.142;17.052;2023-02-02T01:00:13;99636.44;;;3.03;92.64
74310;BME280;62722;51.142;17.052;2023-02-02T01:02:40;99634.75;;;3.02;91.79
74310;BME280;62722;51.142;17.052;2023-02-02T01:05:08;99634.59;;;3.05;91.96
74310;BME280;62722;51.142;17.052;2023-02-02T01:07:36;99642.41;;;3.05;92.10
74310;BME280;62722;51.142;17.052;2023-02-02T01:10:04;99648.47;;;3.05;91.88
74310;BME280;62722;51.142;17.052;2023-02-02T01:12:33;99650.09;;;3.08;91.41
74310;BME280;62722;51.142;17.052;2023-02-02T01:15:02;99635.31;;;3.08;91.41
74310;BME280;62722;51.142;17.052;2023-02-02T01:17:29;99645.81;;;3.07;91.07
74310;BME280;62722;51.142;17.052;2023-02-02T01:19:57;99638.81;;;3.07;90.92
74310;BME280;62722;51.142;17.052;2023-02-02T01:22:24;99656.09;;;3.10;90.68
74310;BME280;62722;51.142;17.052;2023-02-02T01:24:52;99634.31;;;3.11;90.76
74310;BME280;62722;51.142;17.052;2023-02-02T01:27:19;99640.31;;;3.13;90.43
74310;BME280;62722;51.142;17.052;2023-02-02T01:29:46;99642.03;;;3.14;89.33
74310;BME280;62722;51.142;17.052;2023-02-02T01:32:15;99639.28;;;3.17;90.82
74310;BME280;62722;51.142;17.052;2023-02-02T01:34:43;99641.88;;;3.17;89.96
74310;BME280;62722;51.142;17.052;2023-02-02T01:37:10;99644.47;;;3.17;90.52
74310;BME280;62722;51.142;17.052;2023-02-02T01:39:37;99642.78;;;3.16;90.80
74310;BME280;62722;51.142;17.052;2023-02-02T01:42:11;99641.94;;;3.15;89.62
74310;BME280;62722;51.142;17.052;2023-02-02T01:45:19;99647.09;;;3.17;89.90
74310;BME280;62722;51.142;17.052;2023-02-02T01:47:51;99646.19;;;3.18;88.84
74310;BME280;62722;51.142;17.052;2023-02-02T01:50:22;99650.56;;;3.17;90.23
74310;BME280;62722;51.142;17.052;2023-02-02T01:52:52;99651.25;;;3.21;89.34
74310;BME280;62722;51.142;17.052;2023-02-02T01:55:22;99646.88;;;3.21;89.92
74310;BME280;62722;51.142;17.052;2023-02-02T01:57:54;99640.81;;;3.21;90.04
74310;BME280;62722;51.142;17.052;2023-02-02T02:00:22;99642.50;;;3.22;89.27
74310;BME280;62722;51.142;17.052;2023-02-02T02:02:56;99645.03;;;3.23;88.85
74310;BME280;62722;51.142;17.052;2023-02-02T02:05:29;99634.66;;;3.22;88.94
74310;BME280;62722;51.142;17.052;2023-02-02T02:08:04;99651.13;;;3.24;88.92
74310;BME280;62722;51.142;17.052;2023-02-02T02:10:33;99639.78;;;3.25;88.50
74310;BME280;62722;51.142;17.052;2023-02-02T02:13:00;99638.06;;;3.24;88.87
74310;BME280;62722;51.142;17.052;2023-02-02T02:15:29;99640.69;;;3.24;88.66
74310;BME280;62722;51.142;17.052;2023-02-02T02:18:27;99638.84;;;3.26;88.19
74310;BME280;62722;51.142;17.052;2023-02-02T02:21:20;99629.25;;;3.26;89.18
74310;BME280;62722;51.142;17.052;2023-02-02T02:27:53;99606.56;;;3.28;88.19
74310;BME280;62722;51.142;17.052;2023-02-02T02:30:46;99612.56;;;3.30;87.14
74310;BME280;62722;51.142;17.052;2023-02-02T02:33:22;99612.50;;;3.32;87.26
74310;BME280;62722;51.142;17.052;2023-02-02T02:35:56;99613.41;;;3.31;87.45
74310;BME280;62722;51.142;17.052;2023-02-02T02:38:34;99607.28;;;3.32;87.29
74310;BME280;62722;51.142;17.052;2023-02-02T02:41:06;99607.13;;;3.35;86.35
74310;BME280;62722;51.142;17.052;2023-02-02T02:43:38;99606.22;;;3.36;86.89
74310;BME280;62722;51.142;17.052;2023-02-02T02:46:08;99620.16;;;3.35;86.95
74310;BME280;62722;51.142;17.052;2023-02-02T02:48:37;99609.59;;;3.38;87.24
74310;BME280;62722;51.142;17.052;2023-02-02T02:51:06;99606.97;;;3.38;86.65
74310;BME280;62722;51.142;17.052;2023-02-02T02:53:35;99605.06;;;3.41;86.65
74310;BME280;62722;51.142;17.052;2023-02-02T02:56:12;99594.69;;;3.40;86.26
74310;BME280;62722;51.142;17.052;2023-02-02T02:58:48;99601.72;;;3.39;86.14
74310;BME280;62722;51.142;17.052;2023-02-02T03:01:21;99599.09;;;3.39;86.57
74310;BME280;62722;51.142;17.052;2023-02-02T03:04:05;99591.97;;;3.43;85.36
74310;BME280;62722;51.142;17.052;2023-02-02T03:06:38;99594.44;;;3.46;86.09
74310;BME280;62722;51.142;17.052;2023-02-02T03:09:09;99581.44;;;3.44;85.61
74310;BME280;62722;51.142;17.052;2023-02-02T03:11:38;99591.72;;;3.48;85.82
74310;BME280;62722;51.142;17.052;2023-02-02T03:14:05;99584.75;;;3.48;85.37
74310;BME280;62722;51.142;17.052;2023-02-02T03:16:34;99578.78;;;3.46;85.39
74310;BME280;62722;51.142;17.052;2023-02-02T03:19:04;99573.25;;;3.52;84.49
74310;BME280;62722;51.142;17.052;2023-02-02T03:21:33;99573.25;;;3.52;84.97
74310;BME280;62722;51.142;17.052;2023-02-02T03:24:01;99550.69;;;3.51;84.45
74310;BME280;62722;51.142;17.052;2023-02-02T03:26:28;99555.00;;;3.52;84.26
74310;BME280;62722;51.142;17.052;2023-02-02T03:28:55;99542.03;;;3.51;84.65
74310;BME280;62722;51.142;17.052;2023-02-02T03:31:25;99538.59;;;3.50;84.25
74310;BME280;62722;51.142;17.052;2023-02-02T03:33:53;99537.75;;;3.50;84.65
74310;BME280;62722;51.142;17.052;2023-02-02T03:36:22;99535.19;;;3.48;83.56
74310;BME280;62722;51.142;17.052;2023-02-02T03:38:49;99535.19;;;3.48;83.81
74310;BME280;62722;51.142;17.052;2023-02-02T03:41:16;99523.91;;;3.48;83.40
74310;BME280;62722;51.142;17.052;2023-02-02T03:43:43;99536.72;;;3.52;83.31
74310;BME280;62722;51.142;17.052;2023-02-02T03:46:10;99530.66;;;3.52;82.90
74310;BME280;62722;51.142;17.052;2023-02-02T03:48:38;99518.63;;;3.49;83.82
74310;BME280;62722;51.142;17.052;2023-02-02T03:51:06;99513.56;;;3.46;83.75
74310;BME280;62722;51.142;17.052;2023-02-02T03:53:35;99520.53;;;3.46;84.45
74310;BME280;62722;51.142;17.052;2023-02-02T03:56:02;99519.53;;;3.48;84.12
74310;BME280;62722;51.142;17.052;2023-02-02T03:58:30;99522.00;;;3.51;83.24
74310;BME280;62722;51.142;17.052;2023-02-02T04:00:58;99517.56;;;3.53;83.06
74310;BME280;62722;51.142;17.052;2023-02-02T04:03:28;99519.16;;;3.56;82.92
74310;BME280;62722;51.142;17.052;2023-02-02T04:05:55;99520.81;;;3.58;82.65
74310;BME280;62722;51.142;17.052;2023-02-02T04:08:22;99512.81;;;3.61;82.77
74310;BME280;62722;51.142;17.052;2023-02-02T04:10:50;99535.38;;;3.62;82.19
74310;BME280;62722;51.142;17.052;2023-02-02T04:13:18;99530.88;;;3.66;82.27
74310;BME280;62722;51.142;17.052;2023-02-02T04:15:45;99518.72;;;3.65;83.23
74310;BME280;62722;51.142;17.052;2023-02-02T04:18:12;99524.72;;;3.67;82.57
74310;BME280;62722;51.142;17.052;2023-02-02T04:20:39;99530.78;;;3.67;82.93
74310;BME280;62722;51.142;17.052;2023-02-02T04:23:06;99516.72;;;3.70;81.75
74310;BME280;62722;51.142;17.052;2023-02-02T04:25:33;99511.59;;;3.68;82.86
74310;BME280;62722;51.142;17.052;2023-02-02T04:28:02;99518.50;;;3.69;82.41
74310;BME280;62722;51.142;17.052;2023-02-02T04:30:29;99528.16;;;3.67;83.23
74310;BME280;62722;51.142;17.052;2023-02-02T04:32:57;99528.94;;;3.69;82.33
74310;BME280;62722;51.142;17.052;2023-02-02T04:35:24;99522.78;;;3.70;82.61
74310;BME280;62722;51.142;17.052;2023-02-02T04:37:51;99534.00;;;3.72;81.83
74310;BME280;62722;51.142;17.052;2023-02-02T04:40:18;99527.78;;;3.75;81.79
74310;BME280;62722;51.142;17.052;2023-02-02T04:42:46;99531.19;;;3.77;82.11
74310;BME280;62722;51.142;17.052;2023-02-02T04:45:14;99525.97;;;3.77;81.86
74310;BME280;62722;51.142;17.052;2023-02-02T04:47:42;99533.69;;;3.78;81.17
74310;BME280;62722;51.142;17.052;2023-02-02T04:50:10;99531.94;;;3.79;82.12
74310;BME280;62722;51.142;17.052;2023-02-02T04:52:37;99520.75;;;3.77;81.45
74310;BME280;62722;51.142;17.052;2023-02-02T04:55:04;99518.88;;;3.79;81.63
74310;BME280;62722;51.142;17.052;2023-02-02T04:57:32;99518.94;;;3.77;81.65
74310;BME280;62722;51.142;17.052;2023-02-02T04:59:59;99515.44;;;3.78;82.11
74310;BME280;62722;51.142;17.052;2023-02-02T05:02:28;99528.47;;;3.78;81.80
74310;BME280;62722;51.142;17.052;2023-02-02T05:04:55;99524.09;;;3.79;82.10
74310;BME280;62722;51.142;17.052;2023-02-02T05:07:22;99518.81;;;3.80;81.81
74310;BME280;62722;51.142;17.052;2023-02-02T05:09:49;99524.88;;;3.81;82.02
74310;BME280;62722;51.142;17.052;2023-02-02T05:12:16;99515.28;;;3.81;81.78
74310;BME280;62722;51.142;17.052;2023-02-02T05:14:43;99521.44;;;3.80;81.84
74310;BME280;62722;51.142;17.052;2023-02-02T05:17:11;99515.13;;;3.84;82.18
74310;BME280;62722;51.142;17.052;2023-02-02T05:19:39;99519.34;;;3.87;81.10
74310;BME280;62722;51.142;17.052;2023-02-02T05:22:07;99527.19;;;3.87;82.21
74310;BME280;62722;51.142;17.052;2023-02-02T05:24:34;99520.13;;;3.89;82.46
74310;BME280;62722;51.142;17.052;2023-02-02T05:27:01;99524.34;;;3.91;81.67
74310;BME280;62722;51.142;17.052;2023-02-02T05:29:29;99518.19;;;3.92;81.24
74310;BME280;62722;51.142;17.052;2023-02-02T05:31:57;99520.66;;;3.96;80.84
74310;BME280;62722;51.142;17.052;2023-02-02T05:34:24;99523.13;;;3.99;80.69
74310;BME280;62722;51.142;17.052;2023-02-02T05:36:52;99516.97;;;4.00;81.85
74310;BME280;62722;51.142;17.052;2023-02-02T05:39:19;99529.25;;;3.98;81.21
74310;BME280;62722;51.142;17.052;2023-02-02T05:41:47;99523.88;;;4.01;80.95
74310;BME280;62722;51.142;17.052;2023-02-02T05:44:15;99538.69;;;4.00;81.24
74310;BME280;62722;51.142;17.052;2023-02-02T05:46:42;99522.88;;;4.03;80.86
74310;BME280;62722;51.142;17.052;2023-02-02T05:49:11;99534.16;;;4.04;80.90
74310;BME280;62722;51.142;17.052;2023-02-02T05:51:41;99533.41;;;4.02;81.81
74310;BME280;62722;51.142;17.052;2023-02-02T05:54:12;99542.09;;;4.02;81.60
74310;BME280;62722;51.142;17.052;2023-02-02T05:56:44;99553.28;;;4.04;81.22
74310;BME280;62722;51.142;17.052;2023-02-02T05:59:11;99546.31;;;4.05;81.85
74310;BME280;62722;51.142;17.052;2023-02-02T06:01:38;99548.00;;;4.06;81.55
74310;BME280;62722;51.142;17.052;2023-02-02T06:04:05;99540.91;;;4.08;81.20
74310;BME280;62722;51.142;17.052;2023-02-02T06:06:32;99547.06;;;4.07;81.69
74310;BME280;62722;51.142;17.052;2023-02-02T06:09:00;99557.66;;;4.04;82.46
74310;BME280;62722;51.142;17.052;2023-02-02T06:11:29;99571.72;;;4.01;83.60
74310;BME280;62722;51.142;17.052;2023-02-02T06:13:56;99562.13;;;4.02;83.50
74310;BME280;62722;51.142;17.052;2023-02-02T06:16:24;99564.91;;;3.99;83.70
74310;BME280;62722;51.142;17.052;2023-02-02T06:18:51;99569.19;;;4.00;83.29
74310;BME280;62722;51.142;17.052;2023-02-02T06:21:18;99571.72;;;4.01;83.81
74310;BME280;62722;51.142;17.052;2023-02-02T06:23:47;99586.53;;;4.01;83.69
74310;BME280;62722;51.142;17.052;2023-02-02T06:26:15;99591.00;;;3.99;84.15
74310;BME280;62722;51.142;17.052;2023-02-02T06:28:48;99576.25;;;3.98;83.75
74310;BME280;62722;51.142;17.052;2023-02-02T06:31:16;99572.78;;;3.97;84.48
74310;BME280;62722;51.142;17.052;2023-02-02T06:33:44;99586.16;;;3.91;84.41
74310;BME280;62722;51.142;17.052;2023-02-02T06:36:11;99568.03;;;3.88;84.28
74310;BME280;62722;51.142;17.052;2023-02-02T06:38:38;99566.72;;;3.79;84.99
74310;BME280;62722;51.142;17.052;2023-02-02T06:41:05;99583.13;;;3.81;85.71
74310;BME280;62722;51.142;17.052;2023-02-02T06:43:32;99588.44;;;3.80;86.01
74310;BME280;62722;51.142;17.052;2023-02-02T06:46:01;99603.25;;;3.79;86.21
74310;BME280;62722;51.142;17.052;2023-02-02T06:48:28;99598.03;;;3.79;85.64
74310;BME280;62722;51.142;17.052;2023-02-02T06:50:57;99596.28;;;3.80;85.93
74310;BME280;62722;51.142;17.052;2023-02-02T06:53:25;99609.31;;;3.80;86.60
74310;BME280;62722;51.142;17.052;2023-02-02T06:55:53;99603.25;;;3.79;87.06
74310;BME280;62722;51.142;17.052;2023-02-02T06:58:20;99620.63;;;3.80;86.19
74310;BME280;62722;51.142;17.052;2023-02-02T07:00:47;99622.28;;;3.81;85.57
74310;BME280;62722;51.142;17.052;2023-02-02T07:03:17;99625.84;;;3.80;85.96
74310;BME280;62722;51.142;17.052;2023-02-02T07:05:47;99634.44;;;3.82;85.80
74310;BME280;62722;51.142;17.052;2023-02-02T07:08:14;99636.81;;;3.87;84.29
74310;BME280;62722;51.142;17.052;2023-02-02T07:10:41;99671.47;;;3.90;84.30
74310;BME280;62722;51.142;17.052;2023-02-02T07:13:09;99652.34;;;3.90;84.91
74310;BME280;62722;51.142;17.052;2023-02-02T07:15:37;99636.66;;;3.90;85.12
74310;BME280;62722;51.142;17.052;2023-02-02T07:18:05;99653.09;;;3.92;84.83
74310;BME280;62722;51.142;17.052;2023-02-02T07:20:34;99668.84;;;3.90;85.24
74310;BME280;62722;51.142;17.052;2023-02-02T07:23:01;99643.44;;;3.94;84.28
74310;BME280;62722;51.142;17.052;2023-02-02T07:25:29;99656.41;;;3.96;85.06
74310;BME280;62722;51.142;17.052;2023-02-02T07:27:56;99659.09;;;3.94;85.20
74310;BME280;62722;51.142;17.052;2023-02-02T07:30:23;99681.81;;;3.92;84.51
74310;BME280;62722;51.142;17.052;2023-02-02T07:32:54;99673.22;;;3.90;84.21
74310;BME280;62722;51.142;17.052;2023-02-02T07:35:22;99679.28;;;3.90;84.73
74310;BME280;62722;51.142;17.052;2023-02-02T07:37:54;99676.69;;;3.90;85.19
74310;BME280;62722;51.142;17.052;2023-02-02T07:40:22;99682.06;;;3.87;85.35
74310;BME280;62722;51.142;17.052;2023-02-02T07:42:49;99705.53;;;3.87;86.15
74310;BME280;62722;51.142;17.052;2023-02-02T07:45:16;99689.94;;;3.86;86.40
74310;BME280;62722;51.142;17.052;2023-02-02T07:47:43;99672.53;;;3.86;86.09
74310;BME280;62722;51.142;17.052;2023-02-02T07:50:11;99700.31;;;3.87;86.05
74310;BME280;62722;51.142;17.052;2023-02-02T07:52:38;99705.44;;;3.89;85.88
74310;BME280;62722;51.142;17.052;2023-02-02T07:55:07;99711.47;;;3.91;85.28
74310;BME280;62722;51.142;17.052;2023-02-02T07:57:36;99706.78;;;3.98;84.82
74310;BME280;62722;51.142;17.052;2023-02-02T08:00:04;99707.50;;;4.01;84.62
74310;BME280;62722;51.142;17.052;2023-02-02T08:02:32;99716.94;;;4.04;85.00
74310;BME280;62722;51.142;17.052;2023-02-02T08:04:59;99737.63;;;4.08;84.54
74310;BME280;62722;51.142;17.052;2023-02-02T08:07:26;99743.59;;;4.10;84.63
74310;BME280;62722;51.142;17.052;2023-02-02T08:09:53;99736.50;;;4.14;84.71
74310;BME280;62722;51.142;17.052;2023-02-02T08:12:22;99739.00;;;4.15;84.71
74310;BME280;62722;51.142;17.052;2023-02-02T08:14:51;99743.25;;;4.18;84.29
74310;BME280;62722;51.142;17.052;2023-02-02T08:17:18;99771.91;;;4.19;84.52
74310;BME280;62722;51.142;17.052;2023-02-02T08:19:46;99760.69;;;4.17;83.50
74310;BME280;62722;51.142;17.052;2023-02-02T08:22:13;99751.88;;;4.20;83.98
74310;BME280;62722;51.142;17.052;2023-02-02T08:24:40;99759.69;;;4.20;84.12
74310;BME280;62722;51.142;17.052;2023-02-02T08:27:07;99762.16;;;4.23;83.95
74310;BME280;62722;51.142;17.052;2023-02-02T08:29:38;99768.28;;;4.22;84.00
74310;BME280;62722;51.142;17.052;2023-02-02T08:32:05;99794.41;;;4.22;84.01
74310;BME280;62722;51.142;17.052;2023-02-02T08:34:32;99788.44;;;4.20;85.08
74310;BME280;62722;51.142;17.052;2023-02-02T08:37:01;99805.31;;;4.13;85.33
74310;BME280;62722;51.142;17.052;2023-02-02T08:39:29;99802.06;;;4.08;86.09
74310;BME280;62722;51.142;17.052;2023-02-02T08:41:56;99798.69;;;4.06;86.89
74310;BME280;62722;51.142;17.052;2023-02-02T08:44:23;99794.38;;;4.05;87.36
74310;BME280;62722;51.142;17.052;2023-02-02T08:46:52;99807.13;;;4.11;87.71
74310;BME280;62722;51.142;17.052;2023-02-02T08:49:19;99808.81;;;4.12;87.19
74310;BME280;62722;51.142;17.052;2023-02-02T08:51:46;99807.00;;;4.14;87.22
74310;BME280;62722;51.142;17.052;2023-02-02T08:54:14;99813.84;;;4.16;86.01
74310;BME280;62722;51.142;17.052;2023-02-02T08:56:41;99826.47;;;4.25;85.78
74310;BME280;62722;51.142;17.052;2023-02-02T08:59:08;99818.34;;;4.31;85.63
74310;BME280;62722;51.142;17.052;2023-02-02T09:01:35;99834.63;;;4.36;84.82
74310;BME280;62722;51.142;17.052;2023-02-02T09:04:06;99853.22;;;4.49;84.45
74310;BME280;62722;51.142;17.052;2023-02-02T09:06:35;99854.97;;;4.49;84.22
74310;BME280;62722;51.142;17.052;2023-02-02T09:09:03;99857.94;;;4.41;84.04
74310;BME280;62722;51.142;17.052;2023-02-02T09:11:31;99882.31;;;4.23;82.91
74310;BME280;62722;51.142;17.052;2023-02-02T09:13:59;99875.16;;;4.08;83.77
74310;BME280;62722;51.142;17.052;2023-02-02T09:16:28;99877.69;;;3.90;83.31
74310;BME280;62722;51.142;17.052;2023-02-02T09:18:55;99913.78;;;3.81;85.26
74310;BME280;62722;51.142;17.052;2023-02-02T09:21:25;99880.78;;;3.80;87.07
74310;BME280;62722;51.142;17.052;2023-02-02T09:23:53;99908.19;;;3.70;88.17
74310;BME280;62722;51.142;17.052;2023-02-02T09:26:22;99899.91;;;3.60;88.65
74310;BME280;62722;51.142;17.052;2023-02-02T09:28:52;99906.13;;;3.58;88.93
74310;BME280;62722;51.142;17.052;2023-02-02T09:31:19;99908.19;;;3.50;89.14
74310;BME280;62722;51.142;17.052;2023-02-02T09:33:47;99936.94;;;3.48;89.55
74310;BME280;62722;51.142;17.052;2023-02-02T09:36:16;99939.56;;;3.48;89.06
74310;BME280;62722;51.142;17.052;2023-02-02T09:38:46;99954.66;;;3.40;89.77
74310;BME280;62722;51.142;17.052;2023-02-02T09:41:41;99936.69;;;3.34;90.26
74310;BME280;62722;51.142;17.052;2023-02-02T09:44:17;99953.38;;;3.30;89.71
74310;BME280;62722;51.142;17.052;2023-02-02T09:46:57;99949.13;;;3.27;88.76
74310;BME280;62722;51.142;17.052;2023-02-02T09:49:34;99942.94;;;3.30;89.42
74310;BME280;62722;51.142;17.052;2023-02-02T09:52:09;99944.50;;;3.34;89.71
74310;BME280;62722;51.142;17.052;2023-02-02T09:54:42;99945.22;;;3.37;88.69
74310;BME280;62722;51.142;17.052;2023-02-02T09:57:14;99943.34;;;3.41;88.68
74310;BME280;62722;51.142;17.052;2023-02-02T09:59:43;99940.50;;;3.47;89.21
74310;BME280;62722;51.142;17.052;2023-02-02T10:02:17;99936.94;;;3.48;89.61
74310;BME280;62722;51.142;17.052;2023-02-02T10:04:49;99949.94;;;3.50;88.46
74310;BME280;62722;51.142;17.052;2023-02-02T10:07:20;99973.25;;;3.54;88.42
74310;BME280;62722;51.142;17.052;2023-02-02T10:09:55;99959.16;;;3.58;88.32
74310;BME280;62722;51.142;17.052;2023-02-02T10:12:32;99952.09;;;3.60;88.45
74310;BME280;62722;51.142;17.052;2023-02-02T10:15:03;99969.38;;;3.63;88.53
74310;BME280;62722;51.142;17.052;2023-02-02T10:17:39;99979.63;;;3.67;88.05
74310;BME280;62722;51.142;17.052;2023-02-02T10:20:22;99982.25;;;3.67;88.66
74310;BME280;62722;51.142;17.052;2023-02-02T10:22:52;99971.28;;;3.59;89.69
74310;BME280;62722;51.142;17.052;2023-02-02T10:25:26;99960.97;;;3.56;89.64
74310;BME280;62722;51.142;17.052;2023-02-02T10:27:59;99966.38;;;3.52;89.30
74310;BME280;62722;51.142;17.052;2023-02-02T10:30:38;99975.84;;;3.54;89.19
74310;BME280;62722;51.142;17.052;2023-02-02T10:33:16;99981.47;;;3.65;89.38
74310;BME280;62722;51.142;17.052;2023-02-02T10:35:51;99988.75;;;3.77;89.23
74310;BME280;62722;51.142;17.052;2023-02-02T10:38:25;99976.91;;;3.90;88.50
74310;BME280;62722;51.142;17.052;2023-02-02T10:41:05;99980.94;;;3.98;88.46
74310;BME280;62722;51.142;17.052;2023-02-02T10:46:31;99989.16;;;3.88;87.87
74310;BME280;62722;51.142;17.052;2023-02-02T10:49:13;99977.91;;;3.88;87.53
74310;BME280;62722;51.142;17.052;2023-02-02T10:51:45;99996.09;;;3.89;88.03
74310;BME280;62722;51.142;17.052;2023-02-02T10:54:31;99994.91;;;3.97;87.46
74310;BME280;62722;51.142;17.052;2023-02-02T10:57:06;99994.66;;;4.03;87.85
74310;BME280;62722;51.142;17.052;2023-02-02T10:59:38;99997.28;;;4.03;87.35
74310;BME280;62722;51.142;17.052;2023-02-02T11:02:11;100007.59;;;4.06;88.31
74310;BME280;62722;51.142;17.052;2023-02-02T11:04:38;99989.44;;;4.03;86.98
74310;BME280;62722;51.142;17.052;2023-02-02T11:07:23;99998.94;;;4.04;86.44
74310;BME280;62722;51.142;17.052;2023-02-02T11:09:50;100000.66;;;4.05;86.88
74310;BME280;62722;51.142;17.052;2023-02-02T11:12:26;100002.94;;;4.12;86.60
74310;BME280;62722;51.142;17.052;2023-02-02T11:14:59;100033.94;;;4.20;86.47
74310;BME280;62722;51.142;17.052;2023-02-02T11:17:27;100007.69;;;4.23;85.83
74310;BME280;62722;51.142;17.052;2023-02-02T11:19:55;100022.19;;;4.30;84.91
74310;BME280;62722;51.142;17.052;2023-02-02T11:22:25;100018.81;;;4.28;85.48
74310;BME280;62722;51.142;17.052;2023-02-02T11:24:53;100006.50;;;4.30;84.93
74310;BME280;62722;51.142;17.052;2023-02-02T11:27:25;100021.78;;;4.39;83.13
74310;BME280;62722;51.142;17.052;2023-02-02T11:29:53;100026.69;;;4.47;82.13
74310;BME280;62722;51.142;17.052;2023-02-02T11:32:26;100028.88;;;4.56;80.85
74310;BME280;62722;51.142;17.052;2023-02-02T11:35:15;100042.50;;;4.62;77.69
74310;BME280;62722;51.142;17.052;2023-02-02T11:37:57;100036.47;;;4.62;78.35
74310;BME280;62722;51.142;17.052;2023-02-02T11:40:29;100026.06;;;4.60;78.54
74310;BME280;62722;51.142;17.052;2023-02-02T11:43:00;100032.84;;;4.64;79.17
74310;BME280;62722;51.142;17.052;2023-02-02T11:45:34;100042.31;;;4.67;79.82
74310;BME280;62722;51.142;17.052;2023-02-02T11:48:07;100032.56;;;4.70;80.71
74310;BME280;62722;51.142;17.052;2023-02-02T11:50:44;100039.06;;;4.80;79.27
74310;BME280;62722;51.142;17.052;2023-02-02T11:53:22;100055.69;;;4.79;78.79
74310;BME280;62722;51.142;17.052;2023-02-02T11:55:50;100041.06;;;4.75;79.46
74310;BME280;62722;51.142;17.052;2023-02-02T11:58:20;100049.09;;;4.71;79.23
74310;BME280;62722;51.142;17.052;2023-02-02T12:00:55;100048.25;;;4.70;79.31
74310;BME280;62722;51.142;17.052;2023-02-02T12:03:28;100054.13;;;4.75;80.00
74310;BME280;62722;51.142;17.052;2023-02-02T12:05:56;100056.59;;;4.78;79.60
74310;BME280;62722;51.142;17.052;2023-02-02T12:08:24;100065.28;;;4.79;78.99
74310;BME280;62722;51.142;17.052;2023-02-02T12:10:57;100071.72;;;4.72;78.99
74310;BME280;62722;51.142;17.052;2023-02-02T12:13:41;100078.19;;;4.63;79.17
74310;BME280;62722;51.142;17.052;2023-02-02T12:16:20;100076.38;;;4.65;79.83
74310;BME280;62722;51.142;17.052;2023-02-02T12:19:14;100093.03;;;4.63;80.50
74310;BME280;62722;51.142;17.052;2023-02-02T12:21:51;100083.56;;;4.60;81.44
74310;BME280;62722;51.142;17.052;2023-02-02T12:24:28;100097.81;;;4.53;82.69
74310;BME280;62722;51.142;17.052;2023-02-02T12:27:09;100098.47;;;4.38;83.24
74310;BME280;62722;51.142;17.052;2023-02-02T12:29:58;100111.00;;;4.30;84.92
74310;BME280;62722;51.142;17.052;2023-02-02T12:32:51;100100.63;;;4.28;84.76
74310;BME280;62722;51.142;17.052;2023-02-02T12:35:34;100102.53;;;4.25;85.14
74310;BME280;62722;51.142;17.052;2023-02-02T12:38:11;100118.31;;;4.22;85.02
74310;BME280;62722;51.142;17.052;2023-02-02T12:41:14;100115.06;;;4.17;86.07
74310;BME280;62722;51.142;17.052;2023-02-02T12:43:45;100117.19;;;4.07;87.61
74310;BME280;62722;51.142;17.052;2023-02-02T12:46:27;100127.44;;;4.12;89.62
74310;BME280;62722;51.142;17.052;2023-02-02T12:49:17;100125.03;;;4.07;90.14
74310;BME280;62722;51.142;17.052;2023-02-02T12:52:13;100120.25;;;3.97;89.23
74310;BME280;62722;51.142;17.052;2023-02-02T12:54:48;100139.38;;;3.97;90.19
74310;BME280;62722;51.142;17.052;2023-02-02T12:57:30;100136.59;;;4.02;89.41
74310;BME280;62722;51.142;17.052;2023-02-02T13:00:30;100138.28;;;4.03;89.13
74310;BME280;62722;51.142;17.052;2023-02-02T13:03:13;100155.63;;;4.04;88.19
74310;BME280;62722;51.142;17.052;2023-02-02T13:05:54;100142.34;;;4.10;87.59
74310;BME280;62722;51.142;17.052;2023-02-02T13:08:27;100139.66;;;4.11;87.12
74310;BME280;62722;51.142;17.052;2023-02-02T13:11:00;100133.53;;;4.12;86.95
74310;BME280;62722;51.142;17.052;2023-02-02T13:13:32;100141.91;;;4.20;87.84
74310;BME280;62722;51.142;17.052;2023-02-02T13:16:05;100151.63;;;4.17;85.96
74310;BME280;62722;51.142;17.052;2023-02-02T13:18:37;100147.31;;;4.16;87.08
74310;BME280;62722;51.142;17.052;2023-02-02T13:21:06;100168.94;;;4.19;86.43
74310;BME280;62722;51.142;17.052;2023-02-02T13:23:40;100149.75;;;4.20;85.74